sensor_id;sensor_type;location;lat;lon;timestamp;P1;durP1;ratioP1;P2;durP2;ratioP2
16969;SDS011;8601;48.718;8.992;2023-11-19T00:01:44;3.17;;;2.90;;
16969;SDS011;8601;48.718;8.992;2023-11-19T00:04:12;3.50;;;3.20;;
16969;SDS011;8601;48.718;8.992;2023-11-19T00:06:39;5.10;;;3.70;;
16969;SDS011;8601;48.718;8.992;2023-11-19T00:09:06;3.60;;;3.30;;
16969;SDS011;8601;48.718;8.992;2023-11-19T00:11:33;4.80;;;3.37;;
16969;SDS011;8601;48.718;8.992;2023-11-19T00:14:01;3.57;;;3.23;;
16969;SDS011;8601;48.718;8.992;2023-11-19T00:16:29;5.23;;;4.40;;
16969;SDS011;8601;48.718;8.992;2023-11-19T00:18:58;4.53;;;3.77;;
16969;SDS011;8601;48.718;8.992;2023-11-19T00:21:25;3.87;;;3.33;;
16969;SDS011;8601;48.718;8.992;2023-11-19T00:23:53;3.63;;;3.00;;
16969;SDS011;8601;48.718;8.992;2023-11-19T00:26:20;4.50;;;3.67;;
16969;SDS011;8601;48.718;8.992;2023-11-19T00:28:47;5.00;;;3.57;;
16969;SDS011;8601;48.718;8.992;2023-11-19T00:31:15;3.67;;;3.20;;
16969;SDS011;8601;48.718;8.992;2023-11-19T00:33:42;3.50;;;3.20;;
16969;SDS011;8601;48.718;8.992;2023-11-19T00:36:10;3.40;;;3.10;;
16969;SDS011;8601;48.718;8.992;2023-11-19T00:38:38;4.77;;;3.17;;
16969;SDS011;8601;48.718;8.992;2023-11-19T00:41:05;3.43;;;3.13;;
16969;SDS011;8601;48.718;8.992;2023-11-19T00:43:31;4.50;;;3.03;;
16969;SDS011;8601;48.718;8.992;2023-11-19T00:45:58;3.47;;;2.93;;
16969;SDS011;8601;48.718;8.992;2023-11-19T00:48:25;3.40;;;2.73;;
16969;SDS011;8601;48.718;8.992;2023-11-19T00:50:53;3.17;;;2.40;;
16969;SDS011;8601;48.718;8.992;2023-11-19T00:53:21;2.70;;;2.50;;
16969;SDS011;8601;48.718;8.992;2023-11-19T00:55:48;2.70;;;2.50;;
16969;SDS011;8601;48.718;8.992;2023-11-19T00:58:15;3.40;;;2.40;;
16969;SDS011;8601;48.718;8.992;2023-11-19T01:00:43;2.60;;;2.40;;
16969;SDS011;8601;48.718;8.992;2023-11-19T01:03:10;3.57;;;3.00;;
16969;SDS011;8601;48.718;8.992;2023-11-19T01:05:37;2.70;;;2.50;;
16969;SDS011;8601;48.718;8.992;2023-11-19T01:08:04;2.80;;;2.37;;
16969;SDS011;8601;48.718;8.992;2023-11-19T01:10:32;2.50;;;2.30;;
16969;SDS011;8601;48.718;8.992;2023-11-19T01:13:00;2.20;;;1.93;;
16969;SDS011;8601;48.718;8.992;2023-11-19T01:15:27;2.00;;;1.90;;
16969;SDS011;8601;48.718;8.992;2023-11-19T01:17:54;2.80;;;1.80;;
16969;SDS011;8601;48.718;8.992;2023-11-19T01:20:21;2.27;;;2.07;;
16969;SDS011;8601;48.718;8.992;2023-11-19T01:22:48;2.40;;;2.20;;
16969;SDS011;8601;48.718;8.992;2023-11-19T01:25:15;5.90;;;2.00;;
16969;SDS011;8601;48.718;8.992;2023-11-19T01:27:43;2.77;;;1.70;;
16969;SDS011;8601;48.718;8.992;2023-11-19T01:30:11;1.80;;;1.70;;
16969;SDS011;8601;48.718;8.992;2023-11-19T01:32:38;2.53;;;1.80;;
16969;SDS011;8601;48.718;8.992;2023-11-19T01:35:05;1.93;;;1.83;;
16969;SDS011;8601;48.718;8.992;2023-11-19T01:37:33;3.07;;;2.10;;
16969;SDS011;8601;48.718;8.992;2023-11-19T01:40:00;2.67;;;2.27;;
16969;SDS011;8601;48.718;8.992;2023-11-19T01:42:29;2.10;;;2.00;;
16969;SDS011;8601;48.718;8.992;2023-11-19T01:45:00;2.57;;;1.97;;
16969;SDS011;8601;48.718;8.992;2023-11-19T01:47:28;1.83;;;1.73;;
16969;SDS011;8601;48.718;8.992;2023-11-19T01:49:56;1.83;;;1.60;;
16969;SDS011;8601;48.718;8.992;2023-11-19T01:52:23;1.83;;;1.63;;
16969;SDS011;8601;48.718;8.992;2023-11-19T01:54:51;2.77;;;1.97;;
16969;SDS011;8601;48.718;8.992;2023-11-19T01:57:20;2.30;;;2.10;;
16969;SDS011;8601;48.718;8.992;2023-11-19T01:59:48;2.00;;;1.70;;
16969;SDS011;8601;48.718;8.992;2023-11-19T02:02:18;2.17;;;1.63;;
16969;SDS011;8601;48.718;8.992;2023-11-19T02:04:46;1.83;;;1.47;;
16969;SDS011;8601;48.718;8.992;2023-11-19T02:07:13;1.87;;;1.67;;
16969;SDS011;8601;48.718;8.992;2023-11-19T02:09:42;2.47;;;1.23;;
16969;SDS011;8601;48.718;8.992;2023-11-19T02:12:09;1.83;;;1.67;;
16969;SDS011;8601;48.718;8.992;2023-11-19T02:14:36;1.47;;;1.37;;
16969;SDS011;8601;48.718;8.992;2023-11-19T02:17:03;1.40;;;1.30;;
16969;SDS011;8601;48.718;8.992;2023-11-19T02:19:32;1.90;;;1.50;;
16969;SDS011;8601;48.718;8.992;2023-11-19T02:21:59;1.40;;;1.30;;
16969;SDS011;8601;48.718;8.992;2023-11-19T02:24:26;1.40;;;1.30;;
16969;SDS011;8601;48.718;8.992;2023-11-19T02:26:58;1.50;;;1.40;;
16969;SDS011;8601;48.718;8.992;2023-11-19T02:29:30;1.10;;;1.10;;
16969;SDS011;8601;48.718;8.992;2023-11-19T02:31:57;1.30;;;1.10;;
16969;SDS011;8601;48.718;8.992;2023-11-19T02:34:24;0.97;;;0.97;;
16969;SDS011;8601;48.718;8.992;2023-11-19T02:36:50;1.20;;;1.10;;
16969;SDS011;8601;48.718;8.992;2023-11-19T02:39:18;0.90;;;0.90;;
16969;SDS011;8601;48.718;8.992;2023-11-19T02:41:46;1.20;;;1.10;;
16969;SDS011;8601;48.718;8.992;2023-11-19T02:44:15;1.40;;;1.00;;
16969;SDS011;8601;48.718;8.992;2023-11-19T02:46:44;1.57;;;1.20;;
16969;SDS011;8601;48.718;8.992;2023-11-19T02:49:13;1.10;;;1.10;;
16969;SDS011;8601;48.718;8.992;2023-11-19T02:51:40;1.47;;;0.90;;
16969;SDS011;8601;48.718;8.992;2023-11-19T02:54:07;1.23;;;1.13;;
16969;SDS011;8601;48.718;8.992;2023-11-19T02:56:33;0.87;;;0.87;;
16969;SDS011;8601;48.718;8.992;2023-11-19T02:59:02;1.43;;;0.90;;
16969;SDS011;8601;48.718;8.992;2023-11-19T03:01:33;1.33;;;1.23;;
16969;SDS011;8601;48.718;8.992;2023-11-19T03:04:02;0.87;;;0.87;;
16969;SDS011;8601;48.718;8.992;2023-11-19T03:06:29;0.83;;;0.83;;
16969;SDS011;8601;48.718;8.992;2023-11-19T03:08:57;0.80;;;0.80;;
16969;SDS011;8601;48.718;8.992;2023-11-19T03:11:23;0.60;;;0.60;;
16969;SDS011;8601;48.718;8.992;2023-11-19T03:13:50;0.90;;;0.90;;
16969;SDS011;8601;48.718;8.992;2023-11-19T03:16:17;1.30;;;0.70;;
16969;SDS011;8601;48.718;8.992;2023-11-19T03:18:44;0.80;;;0.80;;
16969;SDS011;8601;48.718;8.992;2023-11-19T03:21:12;0.90;;;0.90;;
16969;SDS011;8601;48.718;8.992;2023-11-19T03:23:39;1.23;;;0.60;;
16969;SDS011;8601;48.718;8.992;2023-11-19T03:26:06;0.77;;;0.77;;
16969;SDS011;8601;48.718;8.992;2023-11-19T03:28:34;0.80;;;0.80;;
16969;SDS011;8601;48.718;8.992;2023-11-19T03:31:01;0.73;;;0.70;;
16969;SDS011;8601;48.718;8.992;2023-11-19T03:33:31;0.70;;;0.70;;
16969;SDS011;8601;48.718;8.992;2023-11-19T03:35:58;0.70;;;0.70;;
16969;SDS011;8601;48.718;8.992;2023-11-19T03:38:26;0.80;;;0.80;;
16969;SDS011;8601;48.718;8.992;2023-11-19T03:40:53;0.57;;;0.57;;
16969;SDS011;8601;48.718;8.992;2023-11-19T03:43:20;0.70;;;0.70;;
16969;SDS011;8601;48.718;8.992;2023-11-19T03:45:46;0.80;;;0.80;;
16969;SDS011;8601;48.718;8.992;2023-11-19T03:48:13;1.13;;;0.90;;
16969;SDS011;8601;48.718;8.992;2023-11-19T03:50:41;0.80;;;0.80;;
16969;SDS011;8601;48.718;8.992;2023-11-19T03:53:08;0.73;;;0.73;;
16969;SDS011;8601;48.718;8.992;2023-11-19T03:55:36;0.70;;;0.70;;
16969;SDS011;8601;48.718;8.992;2023-11-19T03:58:03;0.70;;;0.70;;
16969;SDS011;8601;48.718;8.992;2023-11-19T04:00:30;0.60;;;0.60;;
16969;SDS011;8601;48.718;8.992;2023-11-19T04:02:57;0.70;;;0.70;;
16969;SDS011;8601;48.718;8.992;2023-11-19T04:05:23;0.70;;;0.70;;
16969;SDS011;8601;48.718;8.992;2023-11-19T04:07:50;1.00;;;1.00;;
16969;SDS011;8601;48.718;8.992;2023-11-19T04:10:17;0.83;;;0.83;;
16969;SDS011;8601;48.718;8.992;2023-11-19T04:12:46;0.80;;;0.80;;
16969;SDS011;8601;48.718;8.992;2023-11-19T04:15:13;0.70;;;0.70;;
16969;SDS011;8601;48.718;8.992;2023-11-19T04:17:40;0.83;;;0.80;;
16969;SDS011;8601;48.718;8.992;2023-11-19T04:20:07;0.67;;;0.67;;
16969;SDS011;8601;48.718;8.992;2023-11-19T04:22:37;1.30;;;0.90;;
16969;SDS011;8601;48.718;8.992;2023-11-19T04:25:04;1.10;;;1.10;;
16969;SDS011;8601;48.718;8.992;2023-11-19T04:27:31;1.37;;;1.27;;
16969;SDS011;8601;48.718;8.992;2023-11-19T04:29:59;1.10;;;1.00;;
16969;SDS011;8601;48.718;8.992;2023-11-19T04:32:27;1.30;;;1.30;;
16969;SDS011;8601;48.718;8.992;2023-11-19T04:34:54;0.93;;;0.93;;
16969;SDS011;8601;48.718;8.992;2023-11-19T04:37:21;0.80;;;0.80;;
16969;SDS011;8601;48.718;8.992;2023-11-19T04:39:47;0.90;;;0.90;;
16969;SDS011;8601;48.718;8.992;2023-11-19T04:42:14;0.77;;;0.77;;
16969;SDS011;8601;48.718;8.992;2023-11-19T04:44:42;0.70;;;0.70;;
16969;SDS011;8601;48.718;8.992;2023-11-19T04:47:11;0.80;;;0.80;;
16969;SDS011;8601;48.718;8.992;2023-11-19T04:49:39;0.97;;;0.70;;
16969;SDS011;8601;48.718;8.992;2023-11-19T04:52:08;0.70;;;0.70;;
16969;SDS011;8601;48.718;8.992;2023-11-19T04:54:40;2.00;;;1.00;;
16969;SDS011;8601;48.718;8.992;2023-11-19T04:57:08;1.30;;;0.87;;
16969;SDS011;8601;48.718;8.992;2023-11-19T04:59:36;0.80;;;0.80;;
16969;SDS011;8601;48.718;8.992;2023-11-19T05:02:03;0.67;;;0.67;;
16969;SDS011;8601;48.718;8.992;2023-11-19T05:04:31;0.80;;;0.80;;
16969;SDS011;8601;48.718;8.992;2023-11-19T05:06:58;0.60;;;0.60;;
16969;SDS011;8601;48.718;8.992;2023-11-19T05:09:25;0.93;;;0.70;;
16969;SDS011;8601;48.718;8.992;2023-11-19T05:11:51;0.70;;;0.70;;
16969;SDS011;8601;48.718;8.992;2023-11-19T05:14:18;0.70;;;0.70;;
16969;SDS011;8601;48.718;8.992;2023-11-19T05:16:46;1.20;;;1.10;;
16969;SDS011;8601;48.718;8.992;2023-11-19T05:19:13;1.50;;;1.10;;
16969;SDS011;8601;48.718;8.992;2023-11-19T05:21:42;1.30;;;1.20;;
16969;SDS011;8601;48.718;8.992;2023-11-19T05:24:09;1.27;;;1.17;;
16969;SDS011;8601;48.718;8.992;2023-11-19T05:26:36;1.10;;;1.00;;
16969;SDS011;8601;48.718;8.992;2023-11-19T05:29:04;1.13;;;1.13;;
16969;SDS011;8601;48.718;8.992;2023-11-19T05:31:31;1.10;;;1.00;;
16969;SDS011;8601;48.718;8.992;2023-11-19T05:33:57;1.63;;;0.93;;
16969;SDS011;8601;48.718;8.992;2023-11-19T05:36:24;1.27;;;0.90;;
16969;SDS011;8601;48.718;8.992;2023-11-19T05:38:55;1.00;;;1.00;;
16969;SDS011;8601;48.718;8.992;2023-11-19T05:41:22;0.63;;;0.63;;
16969;SDS011;8601;48.718;8.992;2023-11-19T05:43:49;1.07;;;0.60;;
16969;SDS011;8601;48.718;8.992;2023-11-19T05:46:16;1.00;;;1.00;;
16969;SDS011;8601;48.718;8.992;2023-11-19T05:48:43;1.00;;;1.00;;
16969;SDS011;8601;48.718;8.992;2023-11-19T05:51:11;0.70;;;0.70;;
16969;SDS011;8601;48.718;8.992;2023-11-19T05:53:38;0.70;;;0.70;;
16969;SDS011;8601;48.718;8.992;2023-11-19T05:56:08;0.77;;;0.77;;
16969;SDS011;8601;48.718;8.992;2023-11-19T05:58:35;1.37;;;0.80;;
16969;SDS011;8601;48.718;8.992;2023-11-19T06:01:02;1.07;;;1.07;;
16969;SDS011;8601;48.718;8.992;2023-11-19T06:03:32;0.90;;;0.90;;
16969;SDS011;8601;48.718;8.992;2023-11-19T06:06:00;0.70;;;0.70;;
16969;SDS011;8601;48.718;8.992;2023-11-19T06:08:26;1.10;;;0.97;;
16969;SDS011;8601;48.718;8.992;2023-11-19T06:10:55;0.70;;;0.70;;
16969;SDS011;8601;48.718;8.992;2023-11-19T06:13:23;0.67;;;0.67;;
16969;SDS011;8601;48.718;8.992;2023-11-19T06:15:50;0.73;;;0.73;;
16969;SDS011;8601;48.718;8.992;2023-11-19T06:18:17;0.90;;;0.90;;
16969;SDS011;8601;48.718;8.992;2023-11-19T06:20:45;2.00;;;1.10;;
16969;SDS011;8601;48.718;8.992;2023-11-19T06:23:11;0.90;;;0.90;;
16969;SDS011;8601;48.718;8.992;2023-11-19T06:25:39;0.90;;;0.90;;
16969;SDS011;8601;48.718;8.992;2023-11-19T06:28:05;0.90;;;0.90;;
16969;SDS011;8601;48.718;8.992;2023-11-19T06:30:34;1.47;;;1.20;;
16969;SDS011;8601;48.718;8.992;2023-11-19T06:33:01;1.07;;;0.93;;
16969;SDS011;8601;48.718;8.992;2023-11-19T06:35:28;1.07;;;1.00;;
16969;SDS011;8601;48.718;8.992;2023-11-19T06:38:01;0.80;;;0.80;;
16969;SDS011;8601;48.718;8.992;2023-11-19T06:40:28;1.47;;;0.90;;
16969;SDS011;8601;48.718;8.992;2023-11-19T06:42:55;0.77;;;0.77;;
16969;SDS011;8601;48.718;8.992;2023-11-19T06:45:22;0.90;;;0.90;;
16969;SDS011;8601;48.718;8.992;2023-11-19T06:47:50;0.90;;;0.90;;
16969;SDS011;8601;48.718;8.992;2023-11-19T06:50:17;0.93;;;0.93;;
16969;SDS011;8601;48.718;8.992;2023-11-19T06:52:44;0.80;;;0.80;;
16969;SDS011;8601;48.718;8.992;2023-11-19T06:55:11;0.90;;;0.90;;
16969;SDS011;8601;48.718;8.992;2023-11-19T06:57:37;3.73;;;1.10;;
16969;SDS011;8601;48.718;8.992;2023-11-19T07:00:05;1.43;;;0.80;;
16969;SDS011;8601;48.718;8.992;2023-11-19T07:02:33;0.80;;;0.80;;
16969;SDS011;8601;48.718;8.992;2023-11-19T07:05:01;1.57;;;1.00;;
16969;SDS011;8601;48.718;8.992;2023-11-19T07:07:30;1.20;;;1.10;;
16969;SDS011;8601;48.718;8.992;2023-11-19T07:09:56;1.87;;;0.90;;
16969;SDS011;8601;48.718;8.992;2023-11-19T07:12:23;1.23;;;0.87;;
16969;SDS011;8601;48.718;8.992;2023-11-19T07:14:51;1.17;;;1.00;;
16969;SDS011;8601;48.718;8.992;2023-11-19T07:17:20;0.80;;;0.80;;
16969;SDS011;8601;48.718;8.992;2023-11-19T07:19:49;0.93;;;0.80;;
16969;SDS011;8601;48.718;8.992;2023-11-19T07:22:17;0.97;;;0.97;;
16969;SDS011;8601;48.718;8.992;2023-11-19T07:24:45;0.90;;;0.90;;
16969;SDS011;8601;48.718;8.992;2023-11-19T07:27:12;0.93;;;0.90;;
16969;SDS011;8601;48.718;8.992;2023-11-19T07:29:38;2.67;;;1.10;;
16969;SDS011;8601;48.718;8.992;2023-11-19T07:32:05;0.70;;;0.70;;
16969;SDS011;8601;48.718;8.992;2023-11-19T07:34:33;0.63;;;0.63;;
16969;SDS011;8601;48.718;8.992;2023-11-19T07:37:00;1.30;;;1.10;;
16969;SDS011;8601;48.718;8.992;2023-11-19T07:39:29;1.07;;;1.00;;
16969;SDS011;8601;48.718;8.992;2023-11-19T07:41:56;1.47;;;0.80;;
16969;SDS011;8601;48.718;8.992;2023-11-19T07:44:23;0.80;;;0.80;;
16969;SDS011;8601;48.718;8.992;2023-11-19T07:46:49;1.17;;;1.00;;
16969;SDS011;8601;48.718;8.992;2023-11-19T07:49:16;0.80;;;0.80;;
16969;SDS011;8601;48.718;8.992;2023-11-19T07:51:43;0.90;;;0.90;;
16969;SDS011;8601;48.718;8.992;2023-11-19T07:54:10;0.93;;;0.93;;
16969;SDS011;8601;48.718;8.992;2023-11-19T07:56:40;1.10;;;1.10;;
16969;SDS011;8601;48.718;8.992;2023-11-19T07:59:07;1.20;;;1.10;;
16969;SDS011;8601;48.718;8.992;2023-11-19T08:01:33;1.97;;;0.90;;
16969;SDS011;8601;48.718;8.992;2023-11-19T08:04:00;1.00;;;1.00;;
16969;SDS011;8601;48.718;8.992;2023-11-19T08:06:27;1.10;;;1.00;;
16969;SDS011;8601;48.718;8.992;2023-11-19T08:08:55;1.10;;;1.00;;
16969;SDS011;8601;48.718;8.992;2023-11-19T08:11:22;1.50;;;1.00;;
16969;SDS011;8601;48.718;8.992;2023-11-19T08:13:50;1.53;;;1.20;;
16969;SDS011;8601;48.718;8.992;2023-11-19T08:16:17;2.17;;;1.10;;
16969;SDS011;8601;48.718;8.992;2023-11-19T08:18:44;1.70;;;1.27;;
16969;SDS011;8601;48.718;8.992;2023-11-19T08:21:11;0.93;;;0.93;;
16969;SDS011;8601;48.718;8.992;2023-11-19T08:23:38;1.27;;;1.00;;
16969;SDS011;8601;48.718;8.992;2023-11-19T08:26:06;1.20;;;1.10;;
16969;SDS011;8601;48.718;8.992;2023-11-19T08:28:33;1.60;;;1.50;;
16969;SDS011;8601;48.718;8.992;2023-11-19T08:31:02;1.93;;;1.30;;
16969;SDS011;8601;48.718;8.992;2023-11-19T08:33:30;1.20;;;1.10;;
16969;SDS011;8601;48.718;8.992;2023-11-19T08:35:57;1.80;;;0.90;;
16969;SDS011;8601;48.718;8.992;2023-11-19T08:38:25;0.83;;;0.83;;
16969;SDS011;8601;48.718;8.992;2023-11-19T08:40:54;1.13;;;1.00;;
16969;SDS011;8601;48.718;8.992;2023-11-19T08:43:24;1.53;;;1.00;;
16969;SDS011;8601;48.718;8.992;2023-11-19T08:45:51;1.13;;;0.90;;
16969;SDS011;8601;48.718;8.992;2023-11-19T08:48:19;1.10;;;1.00;;
16969;SDS011;8601;48.718;8.992;2023-11-19T08:50:47;1.10;;;1.00;;
16969;SDS011;8601;48.718;8.992;2023-11-19T08:53:15;0.80;;;0.80;;
16969;SDS011;8601;48.718;8.992;2023-11-19T08:55:41;1.30;;;1.20;;
16969;SDS011;8601;48.718;8.992;2023-11-19T08:58:08;1.00;;;0.90;;
16969;SDS011;8601;48.718;8.992;2023-11-19T09:00:35;1.73;;;1.20;;
16969;SDS011;8601;48.718;8.992;2023-11-19T09:03:02;1.60;;;1.23;;
16969;SDS011;8601;48.718;8.992;2023-11-19T09:05:30;1.40;;;1.30;;
16969;SDS011;8601;48.718;8.992;2023-11-19T09:07:57;1.10;;;1.00;;
16969;SDS011;8601;48.718;8.992;2023-11-19T09:10:24;2.03;;;1.57;;
16969;SDS011;8601;48.718;8.992;2023-11-19T09:12:52;1.30;;;1.00;;
16969;SDS011;8601;48.718;8.992;2023-11-19T09:15:18;0.90;;;0.90;;
16969;SDS011;8601;48.718;8.992;2023-11-19T09:17:45;1.77;;;1.00;;
16969;SDS011;8601;48.718;8.992;2023-11-19T09:20:12;1.87;;;1.13;;
16969;SDS011;8601;48.718;8.992;2023-11-19T09:22:41;2.67;;;1.10;;
16969;SDS011;8601;48.718;8.992;2023-11-19T09:25:08;2.70;;;0.93;;
16969;SDS011;8601;48.718;8.992;2023-11-19T09:27:35;1.53;;;1.30;;
16969;SDS011;8601;48.718;8.992;2023-11-19T09:30:02;1.40;;;1.10;;
16969;SDS011;8601;48.718;8.992;2023-11-19T09:32:29;3.10;;;1.20;;
16969;SDS011;8601;48.718;8.992;2023-11-19T09:34:56;1.17;;;1.07;;
16969;SDS011;8601;48.718;8.992;2023-11-19T09:37:23;2.10;;;1.10;;
16969;SDS011;8601;48.718;8.992;2023-11-19T09:39:51;1.30;;;1.20;;
16969;SDS011;8601;48.718;8.992;2023-11-19T09:42:19;1.83;;;1.20;;
16969;SDS011;8601;48.718;8.992;2023-11-19T09:44:46;1.00;;;0.90;;
16969;SDS011;8601;48.718;8.992;2023-11-19T09:47:14;2.20;;;1.70;;
16969;SDS011;8601;48.718;8.992;2023-11-19T09:49:45;1.50;;;1.07;;
16969;SDS011;8601;48.718;8.992;2023-11-19T09:52:12;1.57;;;1.20;;
16969;SDS011;8601;48.718;8.992;2023-11-19T09:54:40;1.10;;;1.03;;
16969;SDS011;8601;48.718;8.992;2023-11-19T09:57:08;1.30;;;1.20;;
16969;SDS011;8601;48.718;8.992;2023-11-19T09:59:36;1.03;;;1.03;;
16969;SDS011;8601;48.718;8.992;2023-11-19T10:02:04;1.63;;;1.00;;
16969;SDS011;8601;48.718;8.992;2023-11-19T10:04:32;0.93;;;0.80;;
16969;SDS011;8601;48.718;8.992;2023-11-19T10:07:02;1.37;;;0.80;;
16969;SDS011;8601;48.718;8.992;2023-11-19T10:09:30;8.57;;;1.00;;
16969;SDS011;8601;48.718;8.992;2023-11-19T10:11:57;2.87;;;0.83;;
16969;SDS011;8601;48.718;8.992;2023-11-19T10:14:25;0.80;;;0.80;;
16969;SDS011;8601;48.718;8.992;2023-11-19T10:16:52;1.03;;;0.90;;
16969;SDS011;8601;48.718;8.992;2023-11-19T10:19:21;1.87;;;0.80;;
16969;SDS011;8601;48.718;8.992;2023-11-19T10:21:48;2.07;;;1.20;;
16969;SDS011;8601;48.718;8.992;2023-11-19T10:24:16;1.10;;;0.70;;
16969;SDS011;8601;48.718;8.992;2023-11-19T10:26:57;1.77;;;1.00;;
16969;SDS011;8601;48.718;8.992;2023-11-19T10:29:25;2.30;;;1.17;;
16969;SDS011;8601;48.718;8.992;2023-11-19T10:31:55;1.27;;;0.90;;
16969;SDS011;8601;48.718;8.992;2023-11-19T10:34:24;0.57;;;0.50;;
16969;SDS011;8601;48.718;8.992;2023-11-19T10:36:52;3.10;;;0.90;;
16969;SDS011;8601;48.718;8.992;2023-11-19T10:39:19;1.00;;;0.80;;
16969;SDS011;8601;48.718;8.992;2023-11-19T10:41:48;0.77;;;0.70;;
16969;SDS011;8601;48.718;8.992;2023-11-19T10:47:08;0.70;;;0.70;;
16969;SDS011;8601;48.718;8.992;2023-11-19T10:49:39;1.10;;;0.70;;
16969;SDS011;8601;48.718;8.992;2023-11-19T10:52:06;0.60;;;0.60;;
16969;SDS011;8601;48.718;8.992;2023-11-19T10:54:35;2.13;;;0.80;;
16969;SDS011;8601;48.718;8.992;2023-11-19T10:57:07;1.10;;;0.80;;
16969;SDS011;8601;48.718;8.992;2023-11-19T10:59:38;1.23;;;1.10;;
16969;SDS011;8601;48.718;8.992;2023-11-19T11:02:06;1.63;;;0.70;;
16969;SDS011;8601;48.718;8.992;2023-11-19T11:04:41;1.13;;;0.90;;
16969;SDS011;8601;48.718;8.992;2023-11-19T11:07:08;0.80;;;0.80;;
16969;SDS011;8601;48.718;8.992;2023-11-19T11:09:36;1.60;;;0.80;;
16969;SDS011;8601;48.718;8.992;2023-11-19T11:12:03;0.70;;;0.70;;
16969;SDS011;8601;48.718;8.992;2023-11-19T11:14:32;1.00;;;0.80;;
16969;SDS011;8601;48.718;8.992;2023-11-19T11:17:02;0.80;;;0.80;;
16969;SDS011;8601;48.718;8.992;2023-11-19T11:19:34;1.13;;;0.83;;
16969;SDS011;8601;48.718;8.992;2023-11-19T11:22:02;1.30;;;0.80;;
16969;SDS011;8601;48.718;8.992;2023-11-19T11:24:34;2.30;;;1.10;;
16969;SDS011;8601;48.718;8.992;2023-11-19T11:27:43;1.20;;;0.90;;
16969;SDS011;8601;48.718;8.992;2023-11-19T11:30:35;1.13;;;0.90;;
16969;SDS011;8601;48.718;8.992;2023-11-19T11:33:16;1.60;;;1.00;;
16969;SDS011;8601;48.718;8.992;2023-11-19T11:35:58;0.90;;;0.80;;
16969;SDS011;8601;48.718;8.992;2023-11-19T11:38:38;0.70;;;0.70;;
16969;SDS011;8601;48.718;8.992;2023-11-19T11:41:17;1.97;;;1.00;;
16969;SDS011;8601;48.718;8.992;2023-11-19T11:43:46;1.60;;;0.83;;
16969;SDS011;8601;48.718;8.992;2023-11-19T11:49:23;2.03;;;1.00;;
16969;SDS011;8601;48.718;8.992;2023-11-19T11:52:02;0.70;;;0.70;;
16969;SDS011;8601;48.718;8.992;2023-11-19T11:54:29;1.17;;;0.70;;
16969;SDS011;8601;48.718;8.992;2023-11-19T11:57:10;0.83;;;0.70;;
16969;SDS011;8601;48.718;8.992;2023-11-19T11:59:47;1.90;;;1.00;;
16969;SDS011;8601;48.718;8.992;2023-11-19T12:02:16;0.93;;;0.80;;
16969;SDS011;8601;48.718;8.992;2023-11-19T12:04:49;0.87;;;0.80;;
16969;SDS011;8601;48.718;8.992;2023-11-19T12:07:18;0.80;;;0.80;;
16969;SDS011;8601;48.718;8.992;2023-11-19T12:09:47;0.60;;;0.60;;
16969;SDS011;8601;48.718;8.992;2023-11-19T12:12:19;1.07;;;0.80;;
16969;SDS011;8601;48.718;8.992;2023-11-19T12:15:02;0.90;;;0.80;;
16969;SDS011;8601;48.718;8.992;2023-11-19T12:17:42;0.90;;;0.80;;
16969;SDS011;8601;48.718;8.992;2023-11-19T12:20:14;1.90;;;0.80;;
16969;SDS011;8601;48.718;8.992;2023-11-19T12:22:43;1.00;;;0.87;;
16969;SDS011;8601;48.718;8.992;2023-11-19T12:25:11;2.70;;;1.07;;
16969;SDS011;8601;48.718;8.992;2023-11-19T12:27:39;1.63;;;0.80;;
16969;SDS011;8601;48.718;8.992;2023-11-19T12:30:07;1.47;;;1.00;;
16969;SDS011;8601;48.718;8.992;2023-11-19T12:32:38;2.93;;;1.20;;
16969;SDS011;8601;48.718;8.992;2023-11-19T12:35:06;1.73;;;0.80;;
16969;SDS011;8601;48.718;8.992;2023-11-19T12:37:39;1.37;;;0.80;;
16969;SDS011;8601;48.718;8.992;2023-11-19T12:40:12;1.00;;;0.87;;
16969;SDS011;8601;48.718;8.992;2023-11-19T12:42:43;0.90;;;0.77;;
16969;SDS011;8601;48.718;8.992;2023-11-19T12:45:10;1.33;;;0.80;;
16969;SDS011;8601;48.718;8.992;2023-11-19T12:47:37;1.03;;;0.90;;
16969;SDS011;8601;48.718;8.992;2023-11-19T12:50:05;1.47;;;0.87;;
16969;SDS011;8601;48.718;8.992;2023-11-19T12:52:33;0.83;;;0.83;;
16969;SDS011;8601;48.718;8.992;2023-11-19T12:55:01;2.13;;;1.00;;
16969;SDS011;8601;48.718;8.992;2023-11-19T12:57:38;2.57;;;0.77;;
16969;SDS011;8601;48.718;8.992;2023-11-19T13:00:06;0.87;;;0.80;;
16969;SDS011;8601;48.718;8.992;2023-11-19T13:02:45;1.80;;;1.10;;
16969;SDS011;8601;48.718;8.992;2023-11-19T13:05:23;8.43;;;2.27;;
16969;SDS011;8601;48.718;8.992;2023-11-19T13:08:02;1.23;;;0.90;;
16969;SDS011;8601;48.718;8.992;2023-11-19T13:10:31;1.63;;;0.80;;
16969;SDS011;8601;48.718;8.992;2023-11-19T13:13:02;3.17;;;1.00;;
16969;SDS011;8601;48.718;8.992;2023-11-19T13:15:30;3.17;;;1.10;;
16969;SDS011;8601;48.718;8.992;2023-11-19T13:17:58;0.87;;;0.80;;
16969;SDS011;8601;48.718;8.992;2023-11-19T13:20:25;0.70;;;0.70;;
16969;SDS011;8601;48.718;8.992;2023-11-19T13:22:55;0.90;;;0.83;;
16969;SDS011;8601;48.718;8.992;2023-11-19T13:25:23;1.93;;;0.80;;
16969;SDS011;8601;48.718;8.992;2023-11-19T13:27:51;1.23;;;0.70;;
16969;SDS011;8601;48.718;8.992;2023-11-19T13:30:19;2.23;;;0.70;;
16969;SDS011;8601;48.718;8.992;2023-11-19T13:32:47;2.57;;;1.23;;
16969;SDS011;8601;48.718;8.992;2023-11-19T13:35:13;1.90;;;0.80;;
16969;SDS011;8601;48.718;8.992;2023-11-19T13:37:40;1.07;;;0.80;;
16969;SDS011;8601;48.718;8.992;2023-11-19T13:40:07;0.77;;;0.70;;
16969;SDS011;8601;48.718;8.992;2023-11-19T13:42:37;1.20;;;0.80;;
16969;SDS011;8601;48.718;8.992;2023-11-19T13:45:07;1.10;;;0.80;;
16969;SDS011;8601;48.718;8.992;2023-11-19T13:47:37;0.97;;;0.90;;
16969;SDS011;8601;48.718;8.992;2023-11-19T13:50:06;1.17;;;0.83;;
16969;SDS011;8601;48.718;8.992;2023-11-19T13:52:34;2.03;;;0.80;;
16969;SDS011;8601;48.718;8.992;2023-11-19T13:55:02;1.63;;;0.80;;
16969;SDS011;8601;48.718;8.992;2023-11-19T13:57:30;2.63;;;0.90;;
16969;SDS011;8601;48.718;8.992;2023-11-19T13:59:58;1.03;;;0.80;;
16969;SDS011;8601;48.718;8.992;2023-11-19T14:02:27;3.27;;;1.00;;
16969;SDS011;8601;48.718;8.992;2023-11-19T14:04:54;1.30;;;0.80;;
16969;SDS011;8601;48.718;8.992;2023-11-19T14:07:21;2.70;;;1.10;;
16969;SDS011;8601;48.718;8.992;2023-11-19T14:09:48;0.80;;;0.80;;
16969;SDS011;8601;48.718;8.992;2023-11-19T14:12:15;1.03;;;0.80;;
16969;SDS011;8601;48.718;8.992;2023-11-19T14:14:42;0.70;;;0.70;;
16969;SDS011;8601;48.718;8.992;2023-11-19T14:17:09;2.10;;;1.07;;
16969;SDS011;8601;48.718;8.992;2023-11-19T14:19:39;1.00;;;0.93;;
16969;SDS011;8601;48.718;8.992;2023-11-19T14:22:06;2.00;;;1.07;;
16969;SDS011;8601;48.718;8.992;2023-11-19T14:24:34;2.40;;;0.87;;
16969;SDS011;8601;48.718;8.992;2023-11-19T14:27:01;1.00;;;0.87;;
16969;SDS011;8601;48.718;8.992;2023-11-19T14:29:28;1.00;;;0.90;;
16969;SDS011;8601;48.718;8.992;2023-11-19T14:31:56;1.10;;;0.90;;
16969;SDS011;8601;48.718;8.992;2023-11-19T14:34:23;2.67;;;0.90;;
16969;SDS011;8601;48.718;8.992;2023-11-19T14:36:52;1.03;;;0.90;;
16969;SDS011;8601;48.718;8.992;2023-11-19T14:39:20;1.83;;;0.90;;
16969;SDS011;8601;48.718;8.992;2023-11-19T14:41:46;0.77;;;0.77;;
16969;SDS011;8601;48.718;8.992;2023-11-19T14:44:14;1.17;;;0.80;;
16969;SDS011;8601;48.718;8.992;2023-11-19T14:46:41;0.83;;;0.80;;
16969;SDS011;8601;48.718;8.992;2023-11-19T14:49:09;1.37;;;1.10;;
16969;SDS011;8601;48.718;8.992;2023-11-19T14:51:35;1.60;;;0.90;;
16969;SDS011;8601;48.718;8.992;2023-11-19T14:54:04;1.17;;;0.90;;
16969;SDS011;8601;48.718;8.992;2023-11-19T14:56:31;1.50;;;0.90;;
16969;SDS011;8601;48.718;8.992;2023-11-19T14:58:58;1.20;;;0.90;;
16969;SDS011;8601;48.718;8.992;2023-11-19T15:01:25;1.10;;;0.80;;
16969;SDS011;8601;48.718;8.992;2023-11-19T15:03:53;1.60;;;0.90;;
16969;SDS011;8601;48.718;8.992;2023-11-19T15:06:22;1.40;;;1.00;;
16969;SDS011;8601;48.718;8.992;2023-11-19T15:08:50;0.90;;;0.90;;
16969;SDS011;8601;48.718;8.992;2023-11-19T15:11:18;1.10;;;0.80;;
16969;SDS011;8601;48.718;8.992;2023-11-19T15:13:45;1.70;;;1.10;;